Main page
METAR-TAF:

METAR-TAF

Airports :

Duong Dong Airport

Phú Quốc, Vietnam

latitude: 10-10-18N, longitude: 103-59-28E, elevation: 11 m

Current weather observation

The report was made 36 minutes ago, at 09:30 UTC
Wind 13 kt from the East/Southeast
Temperature 30°C
Humidity 52%
Pressure 1009 hPa
Visibility 10 km or more
no clouds below 1500 m and no cumulonimbus

METAR: VVPQ 240930Z 11013KT CAVOK 30/19 Q1009 NOSIG

Time: 17:06 (10:06 UTC)

Forecast

The report was made 5 hours and 6 minutes ago, at 05:00 UTC
Forecast valid from 24 at 06 UTC to 25 at 06 UTC
Wind 12 kt from the East
Visibility 10 km or more
Scattered clouds at a height of 1700 ft

TAF: VVPQ 240500Z 2406/2506 09012KT 9999 SCT017

Weather observations and forecasts of more than 4000 airports (METAR and TAF reports).

The available stations are represented by yellow and red dots on the map.

Hover mouse over dot to see the name of the station.

Then click to see weather observations and forecasts.

To change the map : click on the green buttons with a black cross to zoom in, on the green button with a dash to zoom out, or on the green arrows for adjacent maps.


METAR-TAF: